Sunday, January 21, 2018, 3:37 PM EST
Back to Local

KMSV, Monticello, Sullivan County International Airport

Location: Swan Lake, NY, United States Lat: 41.7
Local Time: 3:37 PM EST (20:37 GMT) Lon: -74.8
Time Zone: US/Eastern Elev: 1404 ft

Show me the last for .
Show Decoded

2018-01-21 14:56 METAR KMSV 211956Z AUTO VRB05KT 10SM SCT049 06/M02 A3011 RMK AO2 SLP208
                 T00611017 =
2018-01-21 13:56 METAR KMSV 211856Z AUTO 33003KT 10SM CLR 05/M02 A3011 RMK AO2 SLP207 T00501022 =
2018-01-21 12:56 METAR KMSV 211756Z AUTO 27005KT 10SM CLR 04/M02 A3012 RMK AO2 SLP213 T00441022
                 10044 21033 58010 =
2018-01-21 11:56 METAR KMSV 211656Z AUTO 26007KT 10SM CLR 04/M02 A3013 RMK AO2 SLP217 T00391022 =
2018-01-21 10:56 METAR KMSV 211556Z AUTO 31008KT 10SM CLR 03/M02 A3016 RMK AO2 SLP227 T00331022 =
2018-01-21 09:56 METAR KMSV 211456Z AUTO 31008KT 10SM CLR 03/M02 A3015 RMK AO2 SLP225 T00281022
                 51015 =
2018-01-21 08:56 METAR KMSV 211356Z AUTO 34003KT 10SM CLR M02/M04 A3014 RMK AO2 SLP223 T10171039
                 FZRANO =
2018-01-21 07:56 METAR KMSV 211256Z AUTO 00000KT 10SM CLR M03/M04 A3013 RMK AO2 SLP219 T10331044
                 FZRANO =
2018-01-21 06:56 METAR KMSV 211156Z AUTO 26003KT 10SM CLR M02/M04 A3010 RMK AO2 SLP211 60000
                 T10221039 11006 21028 53020 FZRANO =
2018-01-21 05:56 METAR KMSV 211056Z AUTO 00000KT 10SM CLR M02/M04 A3008 RMK AO2 SLP199 T10171039
                 FZRANO =
2018-01-21 04:56 METAR KMSV 210956Z AUTO 27003KT 9SM CLR M02/M04 A3007 RMK AO2 SNB43E53 SLP195
                 P0000 T10221044 FZRANO =
2018-01-21 03:56 METAR KMSV 210856Z AUTO 28004KT 10SM CLR M01/M04 A3004 RMK AO2 SLP186 T10061039
                 50004 FZRANO =
2018-01-21 02:56 METAR KMSV 210756Z AUTO 31007KT 10SM CLR M01/M04 A3005 RMK AO2 SLP187 T10061039
                 FZRANO =
2018-01-21 01:56 METAR KMSV 210656Z AUTO 31007KT 10SM CLR M01/M04 A3004 RMK AO2 SLP185 T10111039
                 FZRANO =
2018-01-21 00:56 METAR KMSV 210556Z AUTO 25005KT 10SM CLR M02/M04 A3003 RMK AO2 SLP182 T10171039
                 10011 21028 51010 FZRANO =
2018-01-20 23:56 METAR KMSV 210456Z AUTO 26004KT 10SM CLR M02/M04 A3002 RMK AO2 SLP181 T10171039
                 400611094 FZRANO =
2018-01-20 22:56 METAR KMSV 210356Z AUTO 26004KT 10SM CLR M02/M04 A3002 RMK AO2 SLP181 T10221039
                 FZRANO =
2018-01-20 21:56 METAR KMSV 210256Z AUTO 23004KT 10SM CLR M01/M04 A3000 RMK AO2 SLP173 T10061039
                 51012 FZRANO =
2018-01-20 20:56 METAR KMSV 210156Z AUTO 00000KT 10SM CLR M02/M04 A2999 RMK AO2 SLP171 T10171039
                 FZRANO =
2018-01-20 19:56 METAR KMSV 210056Z AUTO 24003KT 10SM CLR 01/M04 A2998 RMK AO2 SLP166 T00061039
                 FZRANO =
2018-01-20 18:56 METAR KMSV 202356Z AUTO 25005KT 10SM CLR 01/M04 A2996 RMK AO2 SLP162 T00111039
                 10061 20011 53033 FZRANO =
2018-01-20 17:56 METAR KMSV 202256Z AUTO 26006KT 10SM CLR 02/M03 A2993 RMK AO2 SLP149 T00221033
                 FZRANO =
2018-01-20 16:56 METAR KMSV 202156Z AUTO 27006KT 10SM CLR 04/M03 A2989 RMK AO2 SLP137 T00391033 =
2018-01-20 15:56 METAR KMSV 202056Z AUTO 27007KT 10SM CLR 06/M03 A2986 RMK AO2 SLP128 T00561033
                 53018 =

Support USWX by starting your Amazon purchase here.